Flight Track Log - Related Links

Times and Time Zones

All times are in EST time to prevent confusion due to time zone crossing. See the SWA1377 flight status page for this flight to view local times or setup timezone preferences in your user account.

Time Position Orientation Groundspeed Altitude Reporting Facility
EST Latitude Longitude Course Direction KTS MPH feet Rate Location/Type
Mon 06:52:13 AM 35.9008 -78.7794 360° North 161 185 1,800  Level Washington Center
Mon 06:52:19 AM 35.9028 -78.7794 360° North 161 185 1,900 2,364 Climbing Washington Center
Mon 06:53:19 AM 35.9453 -78.7503 29° Northeast 206 237 4,400 3,000 Climbing Washington Center
Mon 06:55:05 AM 36.0461 -78.6542 38° Northeast 293 337 10,200 2,731 Climbing Washington Center
Mon 06:56:06 AM 36.1144 -78.5875 38° Northeast 292 336 12,000 1,831 Climbing Washington Center
Mon 06:57:03 AM 36.1808 -78.5231 38° Northeast 323 372 13,800 2,622 Climbing Washington Center
Mon 06:58:05 AM 36.2661 -78.4411 38° Northeast 341 392 17,200 2,829 Climbing Washington Center
Mon 06:59:06 AM 36.3494 -78.3567 39° Northeast 363 418 19,600 2,824 Climbing Washington Center
Mon 07:00:04 AM 36.4328 -78.2717 39° Northeast 376 433 22,800 1,729 Climbing Washington Center
Mon 07:01:04 AM 36.5181 -78.1894 38° Northeast 381 438 23,000 99 Climbing Washington Center
Mon 07:02:05 AM 36.5906 -78.1167 39° Northeast 381 438 23,000  Level Washington Center
Mon 07:03:03 AM 36.6856 -78.0628 24° Northeast 370 426 23,000  Level Washington Center
Mon 07:04:04 AM 36.7806 -78.0114 23° Northeast 370 426 23,000  Level Washington Center
Mon 07:05:04 AM 36.8775 -77.9600 23° Northeast 370 426 23,000  Level Washington Center
Mon 07:06:06 AM 36.9744 -77.9108 22° Northeast 370 426 23,000  Level Washington Center
Mon 07:07:03 AM 37.0714 -77.8567 24° Northeast 370 426 23,000  Level Washington Center
Mon 07:08:05 AM 37.1683 -77.8047 23° Northeast 375 432 23,000  Level Washington Center
Mon 07:09:06 AM 37.2631 -77.7525 24° Northeast 375 432 23,000  Level Washington Center
Mon 07:10:03 AM 37.3581 -77.7031 22° Northeast 375 432 23,000  Level Washington Center
Mon 07:11:04 AM 37.4528 -77.6481 25° Northeast 375 432 23,000  Level Washington Center
Mon 07:12:04 AM 37.5497 -77.5958 23° Northeast 375 432 23,000  Level Washington Center
Mon 07:13:06 AM 37.6442 -77.5458 23° Northeast 375 432 23,000  Level Washington Center
Mon 07:14:04 AM 37.7411 -77.4906 24° Northeast 375 432 23,000  Level Washington Center
Mon 07:15:04 AM 37.8378 -77.4403 22° Northeast 375 432 23,000  Level Washington Center
Mon 07:16:05 AM 37.9325 -77.3872 24° Northeast 380 437 23,000 -347 Level Washington Center
Mon 07:17:05 AM 38.0250 -77.3342 24° Northeast 375 432 22,300 -1,200 Descending Washington Center
Mon 07:18:05 AM 38.1175 -77.2889 21° North 365 420 20,600 -1,966 Descending Washington Center
Mon 07:19:04 AM 38.2161 -77.2328 24° Northeast 355 409 18,400 -1,900 Descending Washington Center
Mon 07:20:05 AM 38.3025 -77.1844 24° Northeast 347 399 16,800 -1,686 Descending Washington Center
Mon 07:21:05 AM 38.3886 -77.1281 27° Northeast 347 399 15,000 -1,686 Descending Washington Center
Mon 07:22:06 AM 38.4542 -77.0500 43° Northeast 330 380 13,400 -1,488 Descending Washington Center
Mon 07:23:06 AM 38.5197 -76.9717 43° Northeast 319 367 12,000 -966 Descending Washington Center
Mon 07:24:04 AM 38.5811 -76.8983 43° Northeast 312 359 11,500 -915 Descending Washington Center
Mon 07:25:04 AM 38.6403 -76.8275 43° Northeast 295 339 10,200 -1,190 Descending Washington Center
Mon 07:26:05 AM 38.6950 -76.7567 45° Northeast 285 328 9,100 -934 Descending Washington Center
Mon 07:27:06 AM 38.7356 -76.6775 57° Northeast 264 304 8,300 -1,034 Descending Washington Center
Mon 07:28:01 AM 38.7667 -76.6000 63° Northeast 266 306 7,100 -1,266 Descending Potomac TRACON
Mon 07:28:55 AM 38.8167 -76.5333 46° Northeast 256 295 6,000 -895 Descending Potomac TRACON
Mon 07:29:55 AM 38.8667 -76.4833 38° Northeast 218 251 5,400 -750 Descending Potomac TRACON
Mon 07:30:55 AM 38.9167 -76.4833 360° North 209 241 4,500 -1,053 Descending Potomac TRACON
Mon 07:31:49 AM 38.9667 -76.5000 345° North 208 239 3,400 -895 Descending Potomac TRACON
Mon 07:32:49 AM 39.0167 -76.5333 333° Northwest 197 227 2,800 -500 Descending Potomac TRACON
Mon 07:33:49 AM 39.0500 -76.5667 322° Northwest 180 207 2,400 -500 Descending Potomac TRACON
Mon 07:34:49 AM 39.1000 -76.6000 333° Northwest 178 205 1,800 -750 Descending Potomac TRACON
Mon 07:35:49 AM 39.1333 -76.6333 322° Northwest 137 158 900 -900 Descending Potomac TRACON
Mon 07:37:00 AM 39.1667 -76.6667 339° North  Level FlightAware Approximate
Mon 07:44:00 AM 39.1754 -76.6683 339° North  Level Estimated
Mon 07:45:00 AM 39.1754 -76.6683 339° North  Level Estimated

Login

Don't have an account? Register now (free) for customized features, flight alerts, and more!